Terminal Aerodrome Forecast
Issued by NWS Mt. Holly, NJ

Home | Current Version | Previous Version | Text Only | Print | Product List | Glossary On
Versions: 1 2 3 4 5 6 7 8 9 10 11 12 13 14 15 16 17
485
FTUS41 KPHI 131724
TAFTTN
TAF
KTTN 131724Z 1318/1418 29018G30KT P6SM SCT050
     FM132100 28015G23KT P6SM BKN050
     FM140000 26007KT P6SM BKN050 OVC100
     FM140400 VRB03KT 5SM -SN BKN015 OVC025
     FM140600 VRB03KT 2SM -SN SCT008 OVC015
     FM141300 35008KT 5SM -SN SCT015 OVC025
     FM141500 33010G18KT P6SM SCT025 BKN050=

USA.gov is the U.S. government's official web portal to all federal, state and local government web resources and services.